createdAt,value
2022-09-30T00:00:02.494Z,6
2022-09-30T00:20:02.336Z,5.9
2022-09-30T00:40:02.908Z,5.7
2022-09-30T01:00:02.217Z,5.5
2022-09-30T01:20:02.571Z,5.4
2022-09-30T01:40:03.175Z,5.2
2022-09-30T02:00:02.530Z,5.1
2022-09-30T02:20:03.086Z,4.9
2022-09-30T02:40:02.609Z,4.8
2022-09-30T03:00:04.157Z,4.6
2022-09-30T03:20:02.960Z,4.6
2022-09-30T03:40:02.460Z,4.4
2022-09-30T04:00:02.734Z,4.3
2022-09-30T04:20:02.325Z,4.2
2022-09-30T04:40:03.174Z,4.1
2022-09-30T05:00:02.806Z,4
2022-09-30T05:20:02.477Z,3.9
2022-09-30T05:40:02.879Z,3.8
2022-09-30T06:00:02.684Z,4
2022-09-30T06:20:02.407Z,4.3
2022-09-30T06:40:02.836Z,4.8
2022-09-30T07:00:02.696Z,5.8
2022-09-30T07:20:03.149Z,6.8
2022-09-30T07:40:02.678Z,8.4
2022-09-30T08:00:17.205Z,10.3
2022-09-30T08:20:03.398Z,12.1
2022-09-30T08:40:02.829Z,14
2022-09-30T09:00:02.553Z,15.9
2022-09-30T09:20:03.273Z,17.5
2022-09-30T09:40:04.267Z,18.1
2022-09-30T10:00:03.613Z,18.7
2022-09-30T10:20:03.119Z,19.2
2022-09-30T10:40:02.687Z,19.9
2022-09-30T11:00:03.311Z,20
2022-09-30T11:20:02.775Z,20.4
2022-09-30T11:40:02.368Z,19.6
2022-09-30T12:00:03.237Z,19
2022-09-30T12:20:02.991Z,19.5
2022-09-30T12:40:02.394Z,19.1
2022-09-30T13:00:02.712Z,18.5
2022-09-30T13:20:02.466Z,17.7
2022-09-30T13:40:03.128Z,17.2
2022-09-30T14:00:02.535Z,17.2
2022-09-30T14:20:02.586Z,17
2022-09-30T14:40:03.095Z,16.6
2022-09-30T15:00:02.879Z,16.7
2022-09-30T15:20:02.956Z,16.4
2022-09-30T15:40:02.477Z,16.1
2022-09-30T16:00:03.165Z,16
2022-09-30T16:20:03.285Z,15.6
2022-09-30T16:40:03.045Z,15
2022-09-30T17:00:02.874Z,14.2
2022-09-30T17:20:02.613Z,13.5
2022-09-30T17:40:03.123Z,12.9
2022-09-30T18:00:02.945Z,12.4
2022-09-30T18:20:02.682Z,11.9
2022-09-30T18:40:03.107Z,11.5
2022-09-30T19:00:02.905Z,11.2
2022-09-30T19:20:02.448Z,10.8
2022-09-30T19:40:12.897Z,10.4
2022-09-30T20:20:03.230Z,9.8
2022-09-30T20:40:02.767Z,9.4
2022-09-30T21:00:03.495Z,9.1
2022-09-30T21:20:03.452Z,8.8
2022-09-30T21:40:03.073Z,8.6
2022-09-30T22:00:02.628Z,8.3
2022-09-30T22:20:02.483Z,8.2
2022-09-30T22:40:03.423Z,7.9
2022-09-30T23:00:03.059Z,7.9
2022-09-30T23:20:02.811Z,7.8
2022-09-30T23:40:02.990Z,7.7
